KNE661 OEJN-DAAG
Flight info
| Callsign | KNE661 |
|---|---|
| Flight time | N/A |
| Altitude | 36000 |
| Route | BOMOX2W/34C BOMOX M686 OTEMO T55 KUNKI P751 METRU UP868 ARLOS DCT OMENI UL874 DIMAO UZ888 BABOR UA31 ALR |
| Aircraft | A333/H-SDE3GHIJ2J3J5M1RVWXY/LB2D1 |
Departure
| Time | N/A |
|---|---|
| Airport | King Abdulaziz International Airport (OEJN) |
Arrival
| Time | 2026-05-07 20:58 |
|---|---|
| Airport | Houari Boumediene Airport (DAAG) |
| Time | Latitude | Longitude | Altitude | Speed | Heading |
|---|---|---|---|---|---|
| 2026-05-07 19:08 | 35.48442 | 17.17839 | 35950 ft | 404 kts | 277° |
| 2026-05-07 19:09 | 35.49274 | 17.11014 | 35948 ft | 404 kts | 277° |
| 2026-05-07 19:09 | 35.50102 | 17.04188 | 35949 ft | 404 kts | 277° |
| 2026-05-07 19:10 | 35.50927 | 16.97363 | 35938 ft | 403 kts | 277° |
| 2026-05-07 19:10 | 35.51744 | 16.90562 | 35934 ft | 403 kts | 277° |
| 2026-05-07 19:11 | 35.52559 | 16.83752 | 35938 ft | 403 kts | 276° |
| 2026-05-07 19:11 | 35.53369 | 16.76938 | 35932 ft | 403 kts | 276° |
| 2026-05-07 19:12 | 35.54176 | 16.70124 | 35926 ft | 403 kts | 276° |
| 2026-05-07 19:12 | 35.54979 | 16.63310 | 35932 ft | 403 kts | 276° |
| 2026-05-07 19:13 | 35.55773 | 16.56540 | 35923 ft | 403 kts | 276° |
| 2026-05-07 19:13 | 35.56569 | 16.49718 | 35912 ft | 403 kts | 276° |
| 2026-05-07 19:14 | 35.57360 | 16.42902 | 35927 ft | 403 kts | 276° |
| 2026-05-07 19:14 | 35.58148 | 16.36079 | 35925 ft | 403 kts | 276° |
| 2026-05-07 19:15 | 35.58931 | 16.29267 | 35913 ft | 403 kts | 276° |
| 2026-05-07 19:15 | 35.59710 | 16.22453 | 35915 ft | 402 kts | 276° |
| 2026-05-07 19:16 | 35.60483 | 16.15652 | 35914 ft | 402 kts | 276° |
| 2026-05-07 19:16 | 35.61254 | 16.08841 | 35913 ft | 402 kts | 276° |
| 2026-05-07 19:17 | 35.62021 | 16.02026 | 35914 ft | 402 kts | 276° |
| 2026-05-07 19:17 | 35.62785 | 15.95210 | 35914 ft | 403 kts | 275° |
| 2026-05-07 19:18 | 35.63545 | 15.88383 | 35905 ft | 403 kts | 275° |
| 2026-05-07 19:18 | 35.64301 | 15.81559 | 35906 ft | 403 kts | 275° |
| 2026-05-07 19:19 | 35.65055 | 15.74720 | 35905 ft | 403 kts | 275° |
| 2026-05-07 19:19 | 35.65804 | 15.67890 | 35905 ft | 403 kts | 275° |
| 2026-05-07 19:20 | 35.66549 | 15.61059 | 35905 ft | 403 kts | 274° |
| 2026-05-07 19:20 | 35.67286 | 15.54267 | 35903 ft | 404 kts | 274° |
| 2026-05-07 19:21 | 35.68024 | 15.47425 | 35900 ft | 404 kts | 274° |
| 2026-05-07 19:21 | 35.68758 | 15.40581 | 35900 ft | 404 kts | 274° |
| 2026-05-07 19:22 | 35.69489 | 15.33730 | 35903 ft | 404 kts | 274° |
| 2026-05-07 19:22 | 35.70216 | 15.26885 | 35909 ft | 404 kts | 274° |
| 2026-05-07 19:23 | 35.70939 | 15.20032 | 35903 ft | 404 kts | 274° |
| 2026-05-07 19:23 | 35.71659 | 15.13172 | 35905 ft | 404 kts | 274° |
| 2026-05-07 19:24 | 35.72375 | 15.06314 | 35904 ft | 404 kts | 274° |
| 2026-05-07 19:24 | 35.73087 | 14.99453 | 35904 ft | 404 kts | 274° |
| 2026-05-07 19:25 | 35.73796 | 14.92584 | 35916 ft | 404 kts | 274° |
| 2026-05-07 19:25 | 35.74499 | 14.85732 | 35897 ft | 403 kts | 274° |
| 2026-05-07 19:26 | 35.75198 | 14.78884 | 35890 ft | 403 kts | 274° |
| 2026-05-07 19:26 | 35.75892 | 14.72043 | 35880 ft | 403 kts | 274° |
| 2026-05-07 19:27 | 35.76582 | 14.65198 | 35870 ft | 403 kts | 274° |
| 2026-05-07 19:27 | 35.77268 | 14.58352 | 35861 ft | 403 kts | 274° |
| 2026-05-07 19:28 | 35.77950 | 14.51511 | 35856 ft | 403 kts | 274° |
| 2026-05-07 19:28 | 35.78630 | 14.44657 | 35856 ft | 403 kts | 274° |
| 2026-05-07 19:29 | 35.79305 | 14.37807 | 35858 ft | 403 kts | 274° |
| 2026-05-07 19:29 | 35.79975 | 14.30966 | 35866 ft | 403 kts | 274° |
| 2026-05-07 19:30 | 35.80641 | 14.24118 | 35875 ft | 403 kts | 274° |
| 2026-05-07 19:30 | 35.81304 | 14.17270 | 35884 ft | 402 kts | 273° |
| 2026-05-07 19:31 | 35.81957 | 14.10497 | 35894 ft | 400 kts | 273° |
| 2026-05-07 19:31 | 35.82608 | 14.03686 | 35905 ft | 400 kts | 273° |
| 2026-05-07 19:32 | 35.83254 | 13.96880 | 35903 ft | 400 kts | 273° |
| 2026-05-07 19:32 | 35.83898 | 13.90063 | 35903 ft | 400 kts | 273° |
| 2026-05-07 19:33 | 35.84538 | 13.83253 | 35911 ft | 400 kts | 272° |
| 2026-05-07 19:33 | 35.85173 | 13.76456 | 35903 ft | 398 kts | 272° |
| 2026-05-07 19:34 | 35.85800 | 13.69686 | 35904 ft | 398 kts | 272° |
| 2026-05-07 19:34 | 35.86424 | 13.62910 | 35903 ft | 398 kts | 272° |
| 2026-05-07 19:35 | 35.87045 | 13.56128 | 35900 ft | 398 kts | 272° |
| 2026-05-07 19:35 | 35.87662 | 13.49350 | 35928 ft | 398 kts | 272° |
| 2026-05-07 19:36 | 35.88274 | 13.42590 | 35904 ft | 395 kts | 272° |
| 2026-05-07 19:36 | 35.88877 | 13.35877 | 35903 ft | 394 kts | 272° |
| 2026-05-07 19:37 | 35.89476 | 13.29159 | 35903 ft | 394 kts | 272° |
| 2026-05-07 19:37 | 35.90072 | 13.22441 | 35906 ft | 394 kts | 272° |
| 2026-05-07 19:38 | 35.90564 | 13.16862 | 35910 ft | 394 kts | 272° |
| 2026-05-07 19:38 | 35.91153 | 13.10141 | 35912 ft | 394 kts | 271° |
| 2026-05-07 19:39 | 35.91737 | 13.03439 | 35908 ft | 393 kts | 271° |
| 2026-05-07 19:39 | 35.92317 | 12.96738 | 35909 ft | 393 kts | 271° |
| 2026-05-07 19:40 | 35.92892 | 12.90037 | 35912 ft | 393 kts | 271° |
| 2026-05-07 19:40 | 35.93464 | 12.83339 | 35912 ft | 393 kts | 271° |
| 2026-05-07 19:41 | 35.94032 | 12.76647 | 35925 ft | 392 kts | 271° |
| 2026-05-07 19:41 | 35.94597 | 12.69952 | 35908 ft | 392 kts | 271° |
| 2026-05-07 19:42 | 35.95157 | 12.63262 | 35907 ft | 391 kts | 271° |
| 2026-05-07 19:42 | 35.95711 | 12.56583 | 35904 ft | 391 kts | 271° |
| 2026-05-07 19:43 | 35.96263 | 12.49897 | 35905 ft | 391 kts | 271° |
| 2026-05-07 19:43 | 35.96811 | 12.43214 | 35900 ft | 391 kts | 271° |
| 2026-05-07 19:44 | 35.97356 | 12.36534 | 35903 ft | 390 kts | 270° |
| 2026-05-07 19:44 | 35.97823 | 12.29937 | 35897 ft | 387 kts | 268° |
| 2026-05-07 19:45 | 35.98269 | 12.23274 | 35897 ft | 388 kts | 268° |
| 2026-05-07 19:45 | 35.98760 | 12.16684 | 35897 ft | 388 kts | 269° |
| 2026-05-07 19:46 | 35.99283 | 12.10052 | 35898 ft | 388 kts | 269° |
| 2026-05-07 19:46 | 35.99809 | 12.03423 | 35910 ft | 388 kts | 269° |
| 2026-05-07 19:47 | 36.00329 | 11.96797 | 35897 ft | 387 kts | 268° |
| 2026-05-07 19:47 | 36.00842 | 11.90178 | 35899 ft | 387 kts | 268° |
| 2026-05-07 19:48 | 36.01351 | 11.83554 | 35894 ft | 387 kts | 268° |
| 2026-05-07 19:48 | 36.01857 | 11.76931 | 35890 ft | 387 kts | 268° |
| 2026-05-07 19:49 | 36.02359 | 11.70307 | 35895 ft | 387 kts | 268° |
| 2026-05-07 19:49 | 36.02858 | 11.63688 | 35898 ft | 386 kts | 268° |
| 2026-05-07 19:50 | 36.03351 | 11.57103 | 35895 ft | 384 kts | 268° |
| 2026-05-07 19:50 | 36.03833 | 11.50529 | 35896 ft | 384 kts | 267° |
| 2026-05-07 19:51 | 36.04140 | 11.43966 | 35895 ft | 382 kts | 265° |
| 2026-05-07 19:51 | 36.04341 | 11.37410 | 35895 ft | 382 kts | 265° |
| 2026-05-07 19:52 | 36.04539 | 11.30847 | 35904 ft | 382 kts | 265° |
| 2026-05-07 19:52 | 36.04755 | 11.24284 | 35904 ft | 382 kts | 264° |
| 2026-05-07 19:53 | 36.04975 | 11.17724 | 35897 ft | 382 kts | 264° |
| 2026-05-07 19:53 | 36.05193 | 11.11158 | 35898 ft | 382 kts | 264° |
| 2026-05-07 19:54 | 36.05406 | 11.04603 | 35905 ft | 382 kts | 264° |
| 2026-05-07 19:54 | 36.05615 | 10.98036 | 35906 ft | 382 kts | 264° |
| 2026-05-07 19:55 | 36.05820 | 10.91482 | 35895 ft | 382 kts | 264° |
| 2026-05-07 19:55 | 36.06021 | 10.84964 | 35893 ft | 382 kts | 264° |
| 2026-05-07 19:56 | 36.06221 | 10.78361 | 35899 ft | 382 kts | 264° |
| 2026-05-07 19:56 | 36.06414 | 10.71850 | 35909 ft | 382 kts | 264° |
| 2026-05-07 19:57 | 36.06605 | 10.65294 | 35904 ft | 382 kts | 264° |
| 2026-05-07 19:57 | 36.06793 | 10.58727 | 35919 ft | 382 kts | 264° |
| 2026-05-07 19:58 | 36.06976 | 10.52171 | 35914 ft | 382 kts | 264° |
| 2026-05-07 19:58 | 36.07231 | 10.45593 | 35907 ft | 387 kts | 268° |
| 2026-05-07 19:59 | 36.08419 | 10.39008 | 35914 ft | 397 kts | 276° |
| 2026-05-07 19:59 | 36.10101 | 10.32475 | 35910 ft | 399 kts | 277° |
| 2026-05-07 20:00 | 36.11867 | 10.25975 | 35909 ft | 399 kts | 277° |
| 2026-05-07 20:00 | 36.13625 | 10.19474 | 35938 ft | 399 kts | 277° |
| 2026-05-07 20:01 | 36.15144 | 10.12938 | 35914 ft | 389 kts | 271° |
| 2026-05-07 20:01 | 36.16066 | 10.06361 | 35911 ft | 388 kts | 269° |
| 2026-05-07 20:02 | 36.16876 | 9.99759 | 35909 ft | 388 kts | 269° |
| 2026-05-07 20:02 | 36.17666 | 9.93159 | 35912 ft | 388 kts | 269° |
| 2026-05-07 20:03 | 36.18462 | 9.86560 | 35910 ft | 388 kts | 269° |
| 2026-05-07 20:03 | 36.19260 | 9.79957 | 35911 ft | 389 kts | 269° |
| 2026-05-07 20:04 | 36.20060 | 9.73321 | 35908 ft | 390 kts | 270° |
| 2026-05-07 20:04 | 36.20937 | 9.66681 | 35909 ft | 392 kts | 271° |
| 2026-05-07 20:05 | 36.21819 | 9.60025 | 35913 ft | 391 kts | 271° |
| 2026-05-07 20:05 | 36.22639 | 9.53375 | 35911 ft | 391 kts | 270° |
| 2026-05-07 20:06 | 36.23427 | 9.46728 | 35909 ft | 390 kts | 270° |
| 2026-05-07 20:06 | 36.24202 | 9.40109 | 35910 ft | 393 kts | 271° |
| 2026-05-07 20:07 | 36.24992 | 9.33339 | 35902 ft | 395 kts | 271° |
| 2026-05-07 20:07 | 36.25962 | 9.26652 | 35902 ft | 398 kts | 274° |
| 2026-05-07 20:08 | 36.27095 | 9.19930 | 35899 ft | 399 kts | 274° |
| 2026-05-07 20:08 | 36.28232 | 9.13215 | 35898 ft | 398 kts | 274° |
| 2026-05-07 20:09 | 36.29344 | 9.06479 | 35906 ft | 399 kts | 274° |
| 2026-05-07 20:10 | 36.30996 | 8.96310 | 35897 ft | 403 kts | 274° |
| 2026-05-07 20:10 | 36.32097 | 8.89509 | 35894 ft | 402 kts | 274° |
| 2026-05-07 20:11 | 36.33194 | 8.82703 | 35892 ft | 402 kts | 274° |
| 2026-05-07 20:11 | 36.34286 | 8.75900 | 35893 ft | 402 kts | 274° |
| 2026-05-07 20:12 | 36.35375 | 8.69089 | 35901 ft | 403 kts | 274° |
| 2026-05-07 20:12 | 36.36465 | 8.62247 | 35895 ft | 405 kts | 274° |
| 2026-05-07 20:13 | 36.37552 | 8.55400 | 35894 ft | 405 kts | 274° |
| 2026-05-07 20:13 | 36.38637 | 8.48559 | 35895 ft | 404 kts | 274° |
| 2026-05-07 20:14 | 36.39716 | 8.41712 | 35897 ft | 404 kts | 274° |
| 2026-05-07 20:14 | 36.40522 | 8.34862 | 35899 ft | 398 kts | 268° |
| 2026-05-07 20:15 | 36.40856 | 8.27998 | 35899 ft | 399 kts | 267° |
| 2026-05-07 20:15 | 36.41101 | 8.21116 | 35900 ft | 400 kts | 266° |
| 2026-05-07 20:16 | 36.41336 | 8.14209 | 35904 ft | 401 kts | 266° |
| 2026-05-07 20:16 | 36.41574 | 8.07303 | 35899 ft | 400 kts | 266° |
| 2026-05-07 20:17 | 36.41815 | 8.00436 | 35903 ft | 401 kts | 266° |
| 2026-05-07 20:17 | 36.42053 | 7.93539 | 35907 ft | 401 kts | 267° |
| 2026-05-07 20:18 | 36.42286 | 7.86594 | 35892 ft | 404 kts | 267° |
| 2026-05-07 20:18 | 36.42517 | 7.79611 | 35907 ft | 405 kts | 267° |
| 2026-05-07 20:19 | 36.42745 | 7.72641 | 35906 ft | 405 kts | 267° |
| 2026-05-07 20:19 | 36.42971 | 7.65656 | 35910 ft | 405 kts | 267° |
| 2026-05-07 20:20 | 36.43191 | 7.58671 | 35932 ft | 404 kts | 267° |
| 2026-05-07 20:20 | 36.43406 | 7.51663 | 35908 ft | 409 kts | 267° |
| 2026-05-07 20:21 | 36.43619 | 7.44590 | 35907 ft | 410 kts | 267° |
| 2026-05-07 20:21 | 36.43831 | 7.37506 | 35912 ft | 410 kts | 267° |
| 2026-05-07 20:22 | 36.44038 | 7.30427 | 35906 ft | 410 kts | 267° |
| 2026-05-07 20:22 | 36.44240 | 7.23348 | 35902 ft | 410 kts | 267° |
| 2026-05-07 20:23 | 36.44438 | 7.16268 | 35918 ft | 410 kts | 267° |
| 2026-05-07 20:23 | 36.44632 | 7.09198 | 35910 ft | 410 kts | 267° |
| 2026-05-07 20:24 | 36.44821 | 7.02126 | 35912 ft | 410 kts | 267° |
| 2026-05-07 20:24 | 36.45006 | 6.95051 | 35914 ft | 410 kts | 267° |
| 2026-05-07 20:25 | 36.45187 | 6.87972 | 35929 ft | 410 kts | 267° |
| 2026-05-07 20:25 | 36.45335 | 6.82094 | 35939 ft | 410 kts | 267° |
| 2026-05-07 20:26 | 36.45508 | 6.75012 | 35932 ft | 411 kts | 267° |
| 2026-05-07 20:26 | 36.45704 | 6.66757 | 35931 ft | 411 kts | 267° |
| 2026-05-07 20:27 | 36.45844 | 6.60817 | 35930 ft | 411 kts | 267° |
| 2026-05-07 20:27 | 36.46005 | 6.53719 | 35917 ft | 411 kts | 267° |
| 2026-05-07 20:28 | 36.46161 | 6.46618 | 35921 ft | 411 kts | 266° |
| 2026-05-07 20:28 | 36.46312 | 6.39509 | 35923 ft | 413 kts | 267° |
| 2026-05-07 20:29 | 36.46463 | 6.32363 | 35914 ft | 414 kts | 267° |
| 2026-05-07 20:29 | 36.46608 | 6.25268 | 35914 ft | 414 kts | 267° |
| 2026-05-07 20:30 | 36.46750 | 6.18072 | 35917 ft | 414 kts | 267° |
| 2026-05-07 20:30 | 36.46887 | 6.10932 | 35917 ft | 414 kts | 267° |
| 2026-05-07 20:31 | 36.47020 | 6.03783 | 35918 ft | 414 kts | 268° |
| 2026-05-07 20:31 | 36.47148 | 5.96647 | 35926 ft | 414 kts | 268° |
| 2026-05-07 20:32 | 36.47271 | 5.89498 | 35922 ft | 414 kts | 268° |
| 2026-05-07 20:32 | 36.47388 | 5.82388 | 35920 ft | 414 kts | 268° |
| 2026-05-07 20:33 | 36.47504 | 5.75191 | 35931 ft | 414 kts | 268° |
| 2026-05-07 20:33 | 36.47615 | 5.68042 | 35929 ft | 414 kts | 269° |
| 2026-05-07 20:34 | 36.47721 | 5.60886 | 35933 ft | 415 kts | 269° |
| 2026-05-07 20:34 | 36.47822 | 5.53741 | 35936 ft | 416 kts | 269° |
| 2026-05-07 20:35 | 36.48010 | 5.39525 | 35951 ft | 416 kts | 268° |
| 2026-05-07 20:36 | 36.48098 | 5.32332 | 35965 ft | 416 kts | 269° |
| 2026-05-07 20:36 | 36.48183 | 5.25136 | 35951 ft | 416 kts | 269° |
| 2026-05-07 20:36 | 36.48224 | 5.21552 | 35832 ft | 415 kts | 269° |
| 2026-05-07 20:37 | 36.48264 | 5.17981 | 35436 ft | 411 kts | 270° |
| 2026-05-07 20:37 | 36.48303 | 5.14410 | 34736 ft | 415 kts | 270° |
| 2026-05-07 20:37 | 36.48339 | 5.10826 | 34103 ft | 417 kts | 270° |
| 2026-05-07 20:37 | 36.48377 | 5.07214 | 33409 ft | 418 kts | 271° |
| 2026-05-07 20:38 | 36.48413 | 5.03606 | 32744 ft | 418 kts | 271° |
| 2026-05-07 20:38 | 36.48582 | 4.99981 | 31790 ft | 423 kts | 276° |
| 2026-05-07 20:38 | 36.49100 | 4.96357 | 30874 ft | 429 kts | 282° |
| 2026-05-07 20:38 | 36.49842 | 4.92756 | 30142 ft | 430 kts | 284° |
| 2026-05-07 20:39 | 36.50634 | 4.89180 | 29336 ft | 428 kts | 284° |
| 2026-05-07 20:39 | 36.51422 | 4.85661 | 28523 ft | 427 kts | 284° |
| 2026-05-07 20:39 | 36.52219 | 4.82114 | 27872 ft | 424 kts | 284° |
| 2026-05-07 20:39 | 36.53015 | 4.78565 | 27069 ft | 417 kts | 284° |
| 2026-05-07 20:40 | 36.53776 | 4.75167 | 26039 ft | 412 kts | 284° |
| 2026-05-07 20:40 | 36.54539 | 4.71752 | 25338 ft | 407 kts | 283° |
| 2026-05-07 20:40 | 36.55292 | 4.68379 | 24552 ft | 403 kts | 283° |
| 2026-05-07 20:40 | 36.56038 | 4.65029 | 23791 ft | 400 kts | 283° |
| 2026-05-07 20:41 | 36.56773 | 4.61723 | 22952 ft | 396 kts | 283° |
| 2026-05-07 20:41 | 36.57504 | 4.58434 | 22100 ft | 392 kts | 282° |
| 2026-05-07 20:41 | 36.58225 | 4.55181 | 21293 ft | 388 kts | 282° |
| 2026-05-07 20:41 | 36.58940 | 4.51956 | 20322 ft | 384 kts | 282° |
| 2026-05-07 20:42 | 36.59644 | 4.48779 | 19031 ft | 379 kts | 282° |
| 2026-05-07 20:42 | 36.60342 | 4.45617 | 17634 ft | 379 kts | 281° |
| 2026-05-07 20:42 | 36.61033 | 4.42481 | 16249 ft | 374 kts | 282° |
| 2026-05-07 20:42 | 36.61716 | 4.39374 | 14923 ft | 370 kts | 282° |
| 2026-05-07 20:43 | 36.62391 | 4.36303 | 14043 ft | 362 kts | 282° |
| 2026-05-07 20:43 | 36.63042 | 4.33344 | 13647 ft | 350 kts | 282° |
| 2026-05-07 20:43 | 36.63680 | 4.30441 | 13126 ft | 346 kts | 282° |
| 2026-05-07 20:43 | 36.64309 | 4.27564 | 12662 ft | 342 kts | 282° |
| 2026-05-07 20:44 | 36.64930 | 4.24718 | 12182 ft | 339 kts | 283° |
| 2026-05-07 20:44 | 36.65547 | 4.21920 | 11718 ft | 331 kts | 283° |
| 2026-05-07 20:44 | 36.66147 | 4.19183 | 11276 ft | 325 kts | 283° |
| 2026-05-07 20:44 | 36.66742 | 4.16473 | 10891 ft | 321 kts | 283° |
| 2026-05-07 20:45 | 36.67311 | 4.13854 | 10816 ft | 306 kts | 283° |
| 2026-05-07 20:45 | 36.67854 | 4.11350 | 10710 ft | 293 kts | 283° |
| 2026-05-07 20:45 | 36.68374 | 4.08951 | 10581 ft | 281 kts | 283° |
| 2026-05-07 20:45 | 36.68871 | 4.06652 | 10450 ft | 270 kts | 283° |
| 2026-05-07 20:46 | 36.69351 | 4.04432 | 10328 ft | 261 kts | 283° |
| 2026-05-07 20:46 | 36.69816 | 4.02280 | 10209 ft | 254 kts | 283° |
| 2026-05-07 20:46 | 36.70269 | 4.00185 | 10102 ft | 247 kts | 283° |
| 2026-05-07 20:46 | 36.70712 | 3.98132 | 9978 ft | 244 kts | 283° |
| 2026-05-07 20:47 | 36.71155 | 3.96077 | 9796 ft | 247 kts | 283° |
| 2026-05-07 20:47 | 36.71603 | 3.93998 | 9473 ft | 249 kts | 283° |
| 2026-05-07 20:47 | 36.72051 | 3.91917 | 9186 ft | 248 kts | 283° |
| 2026-05-07 20:47 | 36.72497 | 3.89847 | 8915 ft | 247 kts | 283° |
| 2026-05-07 20:48 | 36.72934 | 3.87814 | 8639 ft | 246 kts | 283° |
| 2026-05-07 20:48 | 36.73381 | 3.85738 | 8359 ft | 245 kts | 283° |
| 2026-05-07 20:48 | 36.73818 | 3.83706 | 8078 ft | 245 kts | 283° |
| 2026-05-07 20:48 | 36.74259 | 3.81654 | 7800 ft | 245 kts | 283° |
| 2026-05-07 20:49 | 36.74703 | 3.79584 | 7506 ft | 243 kts | 283° |
| 2026-05-07 20:49 | 36.75131 | 3.77587 | 7248 ft | 241 kts | 283° |
| 2026-05-07 20:49 | 36.75561 | 3.75577 | 6976 ft | 239 kts | 283° |
| 2026-05-07 20:49 | 36.75989 | 3.73578 | 6698 ft | 239 kts | 283° |
| 2026-05-07 20:50 | 36.76416 | 3.71580 | 6426 ft | 238 kts | 283° |
| 2026-05-07 20:50 | 36.76843 | 3.69579 | 6121 ft | 238 kts | 283° |
| 2026-05-07 20:50 | 36.77268 | 3.67588 | 5857 ft | 237 kts | 283° |
| 2026-05-07 20:50 | 36.77692 | 3.65599 | 5631 ft | 237 kts | 283° |
| 2026-05-07 20:51 | 36.78115 | 3.63613 | 5386 ft | 237 kts | 283° |
| 2026-05-07 20:51 | 36.78538 | 3.61625 | 5152 ft | 236 kts | 283° |
| 2026-05-07 20:51 | 36.78944 | 3.59608 | 4964 ft | 247 kts | 279° |
| 2026-05-07 20:51 | 36.78999 | 3.57434 | 4591 ft | 254 kts | 259° |
| 2026-05-07 20:52 | 36.78318 | 3.55418 | 4216 ft | 254 kts | 236° |
| 2026-05-07 20:52 | 36.77218 | 3.53708 | 3862 ft | 253 kts | 230° |
| 2026-05-07 20:52 | 36.76041 | 3.52071 | 3538 ft | 254 kts | 229° |
| 2026-05-07 20:52 | 36.74859 | 3.50438 | 3184 ft | 254 kts | 229° |
| 2026-05-07 20:53 | 36.73685 | 3.48801 | 2859 ft | 253 kts | 229° |
| 2026-05-07 20:53 | 36.72524 | 3.47172 | 2712 ft | 252 kts | 229° |
| 2026-05-07 20:53 | 36.71384 | 3.45567 | 2704 ft | 240 kts | 230° |
| 2026-05-07 20:53 | 36.70317 | 3.44063 | 2722 ft | 223 kts | 230° |
| 2026-05-07 20:54 | 36.69352 | 3.42638 | 2701 ft | 207 kts | 238° |
| 2026-05-07 20:54 | 36.68824 | 3.41054 | 2697 ft | 190 kts | 256° |
| 2026-05-07 20:54 | 36.68684 | 3.39489 | 2537 ft | 175 kts | 270° |
| 2026-05-07 20:54 | 36.68719 | 3.38027 | 2503 ft | 163 kts | 272° |
| 2026-05-07 20:55 | 36.68756 | 3.36652 | 2498 ft | 155 kts | 271° |
| 2026-05-07 20:55 | 36.68782 | 3.35360 | 2363 ft | 144 kts | 271° |
| 2026-05-07 20:55 | 36.68804 | 3.34124 | 2152 ft | 142 kts | 271° |
| 2026-05-07 20:55 | 36.68832 | 3.32892 | 1969 ft | 142 kts | 271° |
| 2026-05-07 20:56 | 36.68862 | 3.31658 | 1768 ft | 142 kts | 271° |
| 2026-05-07 20:56 | 36.68891 | 3.30427 | 1579 ft | 142 kts | 271° |
| 2026-05-07 20:56 | 36.68920 | 3.29206 | 1400 ft | 141 kts | 271° |
| 2026-05-07 20:56 | 36.68948 | 3.27992 | 1207 ft | 139 kts | 272° |
| 2026-05-07 20:57 | 36.68976 | 3.26805 | 1024 ft | 139 kts | 272° |
| 2026-05-07 20:57 | 36.69004 | 3.25609 | 833 ft | 137 kts | 272° |
| 2026-05-07 20:57 | 36.69032 | 3.24423 | 659 ft | 136 kts | 271° |
| 2026-05-07 20:57 | 36.69060 | 3.23250 | 472 ft | 134 kts | 270° |
| 2026-05-07 20:58 | 36.69087 | 3.22088 | 300 ft | 134 kts | 269° |
| 2026-05-07 20:58 | 36.69113 | 3.20933 | 117 ft | 133 kts | 270° |
| 2026-05-07 20:58 | 36.69134 | 3.19864 | 67 ft | 105 kts | 271° |
| 2026-05-07 20:58 | 36.69150 | 3.19203 | 83 ft | 47 kts | 272° |
| 2026-05-07 20:59 | 36.69157 | 3.18911 | 87 ft | 31 kts | 271° |
| 2026-05-07 20:59 | 36.69165 | 3.18645 | 82 ft | 30 kts | 273° |
| 2026-05-07 20:59 | 36.69228 | 3.18428 | 83 ft | 27 kts | 345° |
| 2026-05-07 20:59 | 36.69338 | 3.18561 | 75 ft | 26 kts | 92° |
| 2026-05-07 21:00 | 36.69333 | 3.18787 | 68 ft | 26 kts | 91° |
| 2026-05-07 21:00 | 36.69328 | 3.19016 | 75 ft | 26 kts | 90° |
| 2026-05-07 21:00 | 36.69323 | 3.19246 | 66 ft | 27 kts | 92° |
| 2026-05-07 21:00 | 36.69317 | 3.19481 | 67 ft | 28 kts | 91° |
| 2026-05-07 21:01 | 36.69312 | 3.19724 | 74 ft | 28 kts | 92° |
| 2026-05-07 21:01 | 36.69305 | 3.19972 | 65 ft | 29 kts | 90° |
| 2026-05-07 21:01 | 36.69302 | 3.20217 | 70 ft | 22 kts | 84° |
| 2026-05-07 21:01 | 36.69385 | 3.20291 | 65 ft | 16 kts | 16° |
| 2026-05-07 21:02 | 36.69484 | 3.20355 | 67 ft | 16 kts | 19° |
| 2026-05-07 21:02 | 36.69582 | 3.20394 | 65 ft | 14 kts | 50° |
| 2026-05-07 21:02 | 36.69599 | 3.20464 | 67 ft | 6 kts | 84° |
| 2026-05-07 21:02 | 36.69634 | 3.20517 | 65 ft | 10 kts | 29° |
| 2026-05-07 21:03 | 36.69685 | 3.20544 | 66 ft | 0 kts | 20° |